Time;durP1;ratioP1;P1;durP2;ratioP2;P2;SDS_P1;SDS_P2;PMS_P1;PMS_P2;Temp;Humidity;BMP_temperature;BMP_pressure;BME280_temperature;BME280_humidity;BME280_pressure;Samples;Min_cycle;Max_cycle;Signal;HPM_P1;HPM_P2
2022/08/25 00:02:01;;;;;;;;;;;;;;;21.54;60.33;99758.09;4442677;32;20262;-90
2022/08/25 00:04:27;;;;;;;;;;;;;;;21.47;60.33;99750.72;4435285;32;19978;-89
2022/08/25 00:06:54;;;;;;;;;;;;;;;21.52;60.34;99752.03;4452088;32;20365;-91
2022/08/25 00:09:20;;;;;;;;;;;;;;;21.60;60.34;99746.16;4441401;32;19991;-90
2022/08/25 00:11:48;;;;;;;;;;;;;;;21.49;60.34;99752.28;4440569;32;19982;-90
2022/08/25 00:14:15;;;;;;;;;;;;;;;21.38;60.33;99753.09;4438614;32;20008;-90
2022/08/25 00:16:41;;;;;;;;;;;;;;;21.32;60.32;99750.94;4438656;32;20129;-90
2022/08/25 00:19:07;;;;;;;;;;;;;;;21.35;60.33;99750.69;4438382;32;20133;-90
2022/08/25 00:21:33;;;;;;;;;;;;;;;21.50;60.34;99755.75;4438385;32;19974;-90
2022/08/25 00:23:58;;;;;;;;;;;;;;;21.50;60.34;99753.97;4440360;32;29766;-90
2022/08/25 00:26:25;;;;;;;;;;;;;;;21.53;60.33;99753.75;4428021;32;19997;-90
2022/08/25 00:28:50;;;;;;;;;;;;;;;21.93;60.36;99743.50;4428593;32;20000;-90
2022/08/25 00:31:17;;;;;;;;;;;;;;;21.73;60.35;99741.56;4440352;32;25884;-90
2022/08/25 00:33:43;;;;;;;;;;;;;;;21.77;60.35;99735.09;4414535;32;20260;-90
2022/08/25 00:36:11;;;;;;;;;;;;;;;21.50;60.34;99740.72;4438577;32;20044;-88
2022/08/25 00:38:36;;;;;;;;;;;;;;;21.32;60.32;99743.00;4449385;32;20265;-90
2022/08/25 00:41:05;;;;;;;;;;;;;;;21.20;60.32;99743.03;4445507;32;20001;-91
2022/08/25 00:43:39;;;;;;;;;;;;;;;21.32;60.32;99747.44;4441423;32;19992;-91
2022/08/25 00:46:04;;;;;;;;;;;;;;;21.04;60.31;99749.47;4454019;32;19985;-90
2022/08/25 00:48:29;;;;;;;;;;;;;;;21.12;60.32;99741.00;4440808;32;20061;-90
2022/08/25 00:50:55;;;;;;;;;;;;;;;21.16;60.31;99742.44;4440971;32;20001;-90
2022/08/25 00:53:20;;;;;;;;;;;;;;;21.08;60.32;99750.13;4440831;32;19996;-90
2022/08/25 00:55:45;;;;;;;;;;;;;;;21.12;60.32;99752.41;4438411;32;20016;-89
2022/08/25 00:58:13;;;;;;;;;;;;;;;21.00;60.31;99739.25;4437497;32;29393;-90
2022/08/25 01:00:40;;;;;;;;;;;;;;;21.01;60.31;99741.78;4436544;32;19988;-90
2022/08/25 01:03:05;;;;;;;;;;;;;;;21.13;60.32;99743.50;4425268;32;19994;-88
2022/08/25 01:05:31;;;;;;;;;;;;;;;21.05;60.31;99735.28;4430611;32;20009;-91
2022/08/25 01:07:56;;;;;;;;;;;;;;;21.13;60.32;99732.09;4421435;32;19986;-90
2022/08/25 01:10:21;;;;;;;;;;;;;;;21.23;60.32;99735.72;4419024;32;19981;-93
2022/08/25 01:12:47;;;;;;;;;;;;;;;21.18;60.33;99737.03;4439526;32;20000;-90
2022/08/25 01:15:13;;;;;;;;;;;;;;;21.30;60.33;99739.63;4439153;32;20002;-90
2022/08/25 01:17:48;;;;;;;;;;;;;;;21.03;60.31;99739.00;4414091;32;20244;-90
2022/08/25 01:20:14;;;;;;;;;;;;;;;21.23;60.32;99740.16;4425666;32;20081;-90
2022/08/25 01:22:39;;;;;;;;;;;;;;;21.04;60.31;99738.06;4415916;32;19998;-90
2022/08/25 01:25:25;;;;;;;;;;;;;;;20.84;60.30;99745.72;4432930;32;20026;-90
2022/08/25 01:27:50;;;;;;;;;;;;;;;20.85;60.30;99743.91;4436564;32;19973;-91
2022/08/25 01:30:15;;;;;;;;;;;;;;;20.87;60.31;99736.69;4420745;32;19992;-91
2022/08/25 01:32:41;;;;;;;;;;;;;;;20.86;60.30;99735.00;4435796;32;20029;-91
2022/08/25 01:35:06;;;;;;;;;;;;;;;20.95;60.32;99734.31;4425977;32;20013;-92
2022/08/25 01:37:33;;;;;;;;;;;;;;;20.88;60.31;99737.53;4431602;32;19961;-92
2022/08/25 01:39:58;;;;;;;;;;;;;;;20.90;60.31;99731.16;4426961;32;19981;-94
2022/08/25 01:42:28;;;;;;;;;;;;;;;20.93;60.30;99730.94;4435175;32;20040;-94
2022/08/25 01:44:53;;;;;;;;;;;;;;;20.89;60.30;99734.78;4449551;32;19997;-93
2022/08/25 01:47:18;;;;;;;;;;;;;;;20.83;60.30;99733.44;4439366;32;19995;-92
2022/08/25 01:49:43;;;;;;;;;;;;;;;20.74;60.31;99738.56;4439370;32;20007;-92
2022/08/25 01:52:18;;;;;;;;;;;;;;;20.53;60.28;99736.53;4439233;32;20015;-93
2022/08/25 01:57:37;;;;;;;;;;;;;;;20.86;60.30;99736.81;4442578;32;19985;-92
2022/08/25 02:00:06;;;;;;;;;;;;;;;20.83;60.30;99746.66;4441577;32;20289;-91
2022/08/25 02:02:32;;;;;;;;;;;;;;;20.92;60.30;99739.84;4429004;32;19988;-91
2022/08/25 02:04:57;;;;;;;;;;;;;;;20.92;60.31;99739.84;4454839;32;20466;-90
2022/08/25 02:07:22;;;;;;;;;;;;;;;20.68;60.29;99741.66;4441884;32;19978;-91
2022/08/25 02:09:47;;;;;;;;;;;;;;;20.82;60.30;99739.69;4441082;32;20178;-90
2022/08/25 02:12:13;;;;;;;;;;;;;;;20.66;60.29;99738.28;4441344;32;20044;-91
2022/08/25 02:14:58;;;;;;;;;;;;;;;20.56;60.29;99726.69;4441531;32;20321;-91
2022/08/25 02:17:23;;;;;;;;;;;;;;;20.59;60.29;99731.78;4441783;32;20780;-92
2022/08/25 02:19:49;;;;;;;;;;;;;;;20.75;60.30;99729.66;4441335;32;19989;-92
2022/08/25 02:22:14;;;;;;;;;;;;;;;20.53;60.28;99728.59;4441724;32;20338;-92
2022/08/25 02:24:39;;;;;;;;;;;;;;;20.60;60.29;99734.31;4441768;32;20003;-92
2022/08/25 02:27:05;;;;;;;;;;;;;;;20.52;60.29;99726.91;4441317;32;19985;-93
2022/08/25 02:29:30;;;;;;;;;;;;;;;20.72;60.30;99721.94;4441520;32;19989;-92
2022/08/25 02:31:55;;;;;;;;;;;;;;;20.75;60.30;99722.56;4441510;32;19982;-91
2022/08/25 02:34:22;;;;;;;;;;;;;;;20.54;60.28;99725.00;4441110;32;20016;-92
2022/08/25 02:36:47;;;;;;;;;;;;;;;20.59;60.29;99729.13;4441633;32;19973;-91
2022/08/25 02:39:12;;;;;;;;;;;;;;;20.41;60.29;99726.03;4441463;32;20357;-93
2022/08/25 02:41:38;;;;;;;;;;;;;;;20.44;60.28;99726.63;4441138;32;19993;-92
2022/08/25 02:44:03;;;;;;;;;;;;;;;20.47;60.29;99723.75;4441862;32;20043;-93
2022/08/25 02:46:29;;;;;;;;;;;;;;;20.61;60.29;99724.56;4442291;32;19989;-91
2022/08/25 02:48:55;;;;;;;;;;;;;;;20.74;60.30;99718.22;4441379;32;20031;-91
2022/08/25 02:51:20;;;;;;;;;;;;;;;20.67;60.30;99717.00;4441131;32;19997;-91
2022/08/25 02:53:48;;;;;;;;;;;;;;;20.62;60.29;99718.31;4428446;32;19989;-93
2022/08/25 02:56:14;;;;;;;;;;;;;;;20.62;60.29;99713.88;4428624;32;20050;-92
2022/08/25 02:58:39;;;;;;;;;;;;;;;20.64;60.29;99711.09;4441498;32;19981;-92
2022/08/25 03:01:04;;;;;;;;;;;;;;;20.68;60.29;99717.84;4441703;32;20008;-91
2022/08/25 03:03:29;;;;;;;;;;;;;;;20.53;60.28;99712.72;4441568;32;19996;-90
2022/08/25 03:05:56;;;;;;;;;;;;;;;20.56;60.29;99716.09;4441545;32;19981;-92
2022/08/25 03:08:21;;;;;;;;;;;;;;;20.60;60.29;99715.78;4443106;32;20052;-91
2022/08/25 03:10:46;;;;;;;;;;;;;;;20.52;60.28;99716.34;4444169;32;19981;-92
2022/08/25 03:13:12;;;;;;;;;;;;;;;20.42;60.28;99717.13;4451301;32;19965;-94
2022/08/25 03:15:37;;;;;;;;;;;;;;;20.38;60.27;99716.47;4448468;32;19969;-95
2022/08/25 03:18:04;;;;;;;;;;;;;;;20.45;60.28;99719.53;4442451;32;19993;-94
2022/08/25 03:20:31;;;;;;;;;;;;;;;20.35;60.28;99713.22;4429301;32;20861;-95
2022/08/25 03:22:56;;;;;;;;;;;;;;;20.56;60.30;99710.81;4442099;32;19999;-93
2022/08/25 03:28:06;;;;;;;;;;;;;;;20.78;60.29;99710.91;4443129;32;20044;-92
2022/08/25 03:30:31;;;;;;;;;;;;;;;20.90;60.30;99712.66;4440835;32;19993;-92
2022/08/25 03:32:56;;;;;;;;;;;;;;;20.78;60.29;99706.47;4454892;32;20041;-93
2022/08/25 03:35:22;;;;;;;;;;;;;;;20.51;60.28;99714.66;4440485;32;20385;-93
2022/08/25 03:37:47;;;;;;;;;;;;;;;20.51;60.28;99709.34;4440764;32;20262;-93
2022/08/25 03:40:12;;;;;;;;;;;;;;;20.79;60.29;99717.88;4428216;32;27549;-93
2022/08/25 03:42:41;;;;;;;;;;;;;;;20.52;60.28;99724.25;4429897;32;20030;-92
2022/08/25 03:45:07;;;;;;;;;;;;;;;20.46;60.28;99716.78;4442785;32;19949;-92
2022/08/25 03:47:33;;;;;;;;;;;;;;;20.60;60.29;99717.59;4442806;32;19969;-92
2022/08/25 03:49:58;;;;;;;;;;;;;;;20.34;60.28;99715.00;4442617;32;19977;-91
2022/08/25 03:52:23;;;;;;;;;;;;;;;20.26;60.27;99727.09;4442349;32;20035;-91
2022/08/25 03:54:48;;;;;;;;;;;;;;;20.43;60.28;99710.87;4442014;32;20000;-90
2022/08/25 03:57:14;;;;;;;;;;;;;;;20.61;60.28;99714.81;4441934;32;19985;-90
2022/08/25 03:59:39;;;;;;;;;;;;;;;20.45;60.28;99714.25;4442232;32;20341;-90
2022/08/25 04:02:04;;;;;;;;;;;;;;;20.85;60.30;99712.16;4442080;32;20007;-90
2022/08/25 04:04:30;;;;;;;;;;;;;;;20.95;60.31;99715.78;4429392;32;19984;-92
2022/08/25 04:06:55;;;;;;;;;;;;;;;20.73;60.30;99711.25;4442320;32;19977;-89
2022/08/25 04:09:20;;;;;;;;;;;;;;;20.77;60.29;99718.00;4441687;32;23056;-90
2022/08/25 04:11:45;;;;;;;;;;;;;;;20.68;60.29;99716.06;4456146;32;19969;-91
2022/08/25 04:14:11;;;;;;;;;;;;;;;20.74;60.30;99720.03;4442205;32;19985;-91
2022/08/25 04:16:36;;;;;;;;;;;;;;;20.64;60.29;99714.59;4442180;32;19980;-90
2022/08/25 04:19:02;;;;;;;;;;;;;;;20.71;60.30;99728.19;4456310;32;19969;-91
2022/08/25 04:21:28;;;;;;;;;;;;;;;20.53;60.28;99733.87;4428727;32;20010;-89
2022/08/25 04:23:53;;;;;;;;;;;;;;;20.50;60.28;99726.19;4455923;32;20017;-90
2022/08/25 04:26:23;;;;;;;;;;;;;;;20.29;60.27;99733.00;4454599;32;20000;-90
2022/08/25 04:28:48;;;;;;;;;;;;;;;20.64;60.29;99722.53;4427292;32;20008;-90
2022/08/25 04:31:14;;;;;;;;;;;;;;;20.69;60.29;99724.81;4439228;32;19996;-89
2022/08/25 04:33:40;;;;;;;;;;;;;;;21.09;60.30;99726.19;4439194;32;19981;-89
2022/08/25 04:36:06;;;;;;;;;;;;;;;21.05;60.31;99722.06;4439492;32;19996;-89
2022/08/25 04:38:31;;;;;;;;;;;;;;;20.91;60.30;99727.56;4454533;32;19981;-89
2022/08/25 04:40:57;;;;;;;;;;;;;;;20.91;60.30;99727.56;4442443;32;20026;-89
2022/08/25 04:43:22;;;;;;;;;;;;;;;21.02;60.30;99718.81;4443159;32;19969;-89
2022/08/25 04:45:47;;;;;;;;;;;;;;;21.06;60.31;99721.13;4457339;32;24673;-89
2022/08/25 04:48:13;;;;;;;;;;;;;;;21.08;60.31;99718.37;4445551;32;19988;-89
2022/08/25 04:50:38;;;;;;;;;;;;;;;21.30;60.32;99710.50;4442340;32;19996;-89
2022/08/25 04:53:03;;;;;;;;;;;;;;;21.29;60.32;99715.88;4441587;32;20020;-90
2022/08/25 04:55:28;;;;;;;;;;;;;;;21.32;60.32;99715.69;4441174;32;21423;-89
2022/08/25 04:57:54;;;;;;;;;;;;;;;21.36;60.33;99719.78;4440445;32;20080;-89
2022/08/25 05:00:19;;;;;;;;;;;;;;;21.50;60.34;99721.34;4455835;32;20219;-89
2022/08/25 05:02:44;;;;;;;;;;;;;;;21.49;60.34;99717.84;4441522;32;19977;-90
2022/08/25 05:05:10;;;;;;;;;;;;;;;21.51;60.34;99710.63;4455820;32;20291;-89
2022/08/25 05:07:35;;;;;;;;;;;;;;;21.84;60.36;99707.16;4441485;32;19989;-89
2022/08/25 05:10:01;;;;;;;;;;;;;;;21.74;60.35;99709.66;4440881;32;19984;-88
2022/08/25 05:12:26;;;;;;;;;;;;;;;21.87;60.35;99716.66;4440886;32;19999;-88
2022/08/25 05:14:52;;;;;;;;;;;;;;;22.10;60.36;99705.09;4440929;32;20115;-89
2022/08/25 05:17:17;;;;;;;;;;;;;;;22.25;60.37;99705.69;4441300;32;20030;-89
2022/08/25 05:19:43;;;;;;;;;;;;;;;22.27;60.38;99706.41;4441449;32;19981;-90
2022/08/25 05:22:09;;;;;;;;;;;;;;;22.40;60.38;99703.56;4441322;32;20239;-88
2022/08/25 05:24:34;;;;;;;;;;;;;;;22.60;60.39;99706.28;4441382;32;19985;-88
2022/08/25 05:26:59;;;;;;;;;;;;;;;22.62;60.39;99706.16;4440579;32;30480;-89
2022/08/25 05:29:25;;;;;;;;;;;;;;;22.64;60.39;99710.34;4455442;32;20000;-88
2022/08/25 05:31:50;;;;;;;;;;;;;;;22.80;60.40;99706.44;4441241;32;19965;-88
2022/08/25 05:34:17;;;;;;;;;;;;;;;22.86;60.41;99709.44;4440790;32;20060;-89
2022/08/25 05:36:42;;;;;;;;;;;;;;;22.96;60.40;99701.56;4455485;32;19995;-88
2022/08/25 05:39:08;;;;;;;;;;;;;;;22.97;60.41;99705.91;4455343;32;19978;-89
2022/08/25 05:41:33;;;;;;;;;;;;;;;23.06;60.42;99702.47;4441295;32;19991;-89
2022/08/25 05:43:58;;;;;;;;;;;;;;;23.05;60.42;99699.94;4441226;32;21153;-89
2022/08/25 05:46:23;;;;;;;;;;;;;;;23.31;60.43;99700.38;4441259;32;20020;-89
2022/08/25 05:48:49;;;;;;;;;;;;;;;23.36;60.42;99706.13;4455379;32;19993;-89
2022/08/25 05:51:14;;;;;;;;;;;;;;;23.69;60.45;99699.78;4441193;32;19977;-89
2022/08/25 05:53:40;;;;;;;;;;;;;;;23.62;60.44;99704.75;4441308;32;20017;-89
2022/08/25 05:56:06;;;;;;;;;;;;;;;23.77;60.46;99697.28;4455237;32;20316;-89
2022/08/25 05:58:31;;;;;;;;;;;;;;;24.00;60.46;99696.09;4455236;32;19991;-89
2022/08/25 06:00:56;;;;;;;;;;;;;;;24.18;60.47;99699.78;4455407;32;19992;-89
2022/08/25 06:03:22;;;;;;;;;;;;;;;24.26;60.47;99696.44;4454939;32;19984;-89
2022/08/25 06:05:47;;;;;;;;;;;;;;;24.15;60.47;99694.75;4441473;32;20289;-89
2022/08/25 06:08:12;;;;;;;;;;;;;;;24.21;60.47;99695.16;4455228;32;20346;-88
2022/08/25 06:10:37;;;;;;;;;;;;;;;24.44;60.48;99689.50;4455584;32;20254;-89
2022/08/25 06:13:03;;;;;;;;;;;;;;;24.58;60.49;99695.38;4441119;32;23311;-88
2022/08/25 06:15:28;;;;;;;;;;;;;;;24.41;60.48;99695.09;4441728;32;20040;-89
2022/08/25 06:17:55;;;;;;;;;;;;;;;24.52;60.48;99699.44;4441313;32;26812;-88
2022/08/25 06:20:21;;;;;;;;;;;;;;;24.73;60.49;99704.63;4442585;32;19965;-88
2022/08/25 06:22:46;;;;;;;;;;;;;;;24.88;60.50;99700.56;4444269;32;20318;-88
2022/08/25 06:25:12;;;;;;;;;;;;;;;24.87;60.50;99700.72;4441691;32;19992;-88
2022/08/25 06:27:37;;;;;;;;;;;;;;;24.97;60.51;99698.88;4455483;32;19995;-88
2022/08/25 06:30:03;;;;;;;;;;;;;;;25.00;60.50;99701.28;4455292;32;19981;-88
2022/08/25 06:32:35;;;;;;;;;;;;;;;25.16;60.53;99704.19;4441122;32;19985;-88
2022/08/25 06:35:01;;;;;;;;;;;;;;;25.24;60.51;99698.97;4441322;32;19981;-88
2022/08/25 06:37:26;;;;;;;;;;;;;;;25.53;60.54;99701.56;4455429;32;19981;-88
2022/08/25 06:39:51;;;;;;;;;;;;;;;25.53;60.53;99706.03;4440768;32;19969;-88
2022/08/25 06:42:17;;;;;;;;;;;;;;;25.69;60.55;99709.81;4441278;32;19985;-88
2022/08/25 06:44:42;;;;;;;;;;;;;;;25.79;60.56;99709.78;4455229;32;19988;-89
2022/08/25 06:47:08;;;;;;;;;;;;;;;26.07;60.57;99709.78;4455202;32;20017;-89
2022/08/25 06:49:33;;;;;;;;;;;;;;;26.14;60.57;99705.53;4441241;32;19973;-88
2022/08/25 06:51:58;;;;;;;;;;;;;;;26.27;60.58;99709.53;4454639;32;26760;-88
2022/08/25 06:54:24;;;;;;;;;;;;;;;26.34;60.58;99706.25;4454513;32;26634;-88
2022/08/25 06:56:50;;;;;;;;;;;;;;;26.37;60.58;99711.31;4440669;32;19989;-88
2022/08/25 06:59:16;;;;;;;;;;;;;;;26.39;60.58;99714.66;4440890;32;19984;-88
2022/08/25 07:01:42;;;;;;;;;;;;;;;26.61;60.59;99707.06;4440996;32;20273;-89
2022/08/25 07:04:07;;;;;;;;;;;;;;;26.65;60.61;99704.06;4440967;32;20040;-88
2022/08/25 07:06:34;;;;;;;;;;;;;;;26.75;60.61;99708.38;4455180;32;19997;-88
2022/08/25 07:08:59;;;;;;;;;;;;;;;26.72;60.59;99711.31;4455080;32;20036;-88
2022/08/25 07:11:25;;;;;;;;;;;;;;;26.88;60.61;99705.28;4454935;32;19977;-88
2022/08/25 07:13:50;;;;;;;;;;;;;;;27.13;60.63;99701.84;4439817;32;20325;-88
2022/08/25 07:16:16;;;;;;;;;;;;;;;27.39;60.64;99707.19;4440745;32;20321;-88
2022/08/25 07:18:42;;;;;;;;;;;;;;;27.20;60.62;99702.03;4454952;32;20314;-88
2022/08/25 07:21:07;;;;;;;;;;;;;;;27.45;60.64;99708.41;4454796;32;19992;-89
2022/08/25 07:23:32;;;;;;;;;;;;;;;27.73;60.65;99707.25;4440798;32;19985;-88
2022/08/25 07:26:06;;;;;;;;;;;;;;;27.67;60.65;99709.72;4440380;32;19981;-89
2022/08/25 07:28:31;;;;;;;;;;;;;;;27.89;60.66;99705.63;4440713;32;19978;-89
2022/08/25 07:30:59;;;;;;;;;;;;;;;27.90;60.66;99707.31;4440757;32;19973;-89
2022/08/25 07:33:24;;;;;;;;;;;;;;;27.96;60.66;99696.81;4454722;32;19977;-88
2022/08/25 07:35:50;;;;;;;;;;;;;;;28.02;60.66;99706.03;4454042;32;27383;-88
2022/08/25 07:38:15;;;;;;;;;;;;;;;28.04;60.66;99710.22;4440272;32;19977;-89
2022/08/25 07:40:40;;;;;;;;;;;;;;;28.33;60.68;99704.47;4440593;32;20087;-89
2022/08/25 07:43:09;;;;;;;;;;;;;;;28.33;60.68;99707.16;4440508;32;20255;-89
2022/08/25 07:45:35;;;;;;;;;;;;;;;28.34;60.68;99703.47;4441335;32;20007;-89
2022/08/25 07:48:01;;;;;;;;;;;;;;;28.52;60.69;99707.84;4440919;32;19996;-90
2022/08/25 07:50:27;;;;;;;;;;;;;;;28.50;60.70;99702.66;4441156;32;19977;-89
2022/08/25 07:52:52;;;;;;;;;;;;;;;28.50;60.70;99704.50;4428663;32;20016;-89
2022/08/25 07:55:17;;;;;;;;;;;;;;;28.92;60.71;99693.69;4456285;32;19973;-91
2022/08/25 07:57:43;;;;;;;;;;;;;;;28.81;60.71;99696.66;4444356;32;19974;-89
2022/08/25 08:00:09;;;;;;;;;;;;;;;28.76;60.70;99694.50;4440146;32;19984;-89
2022/08/25 08:02:36;;;;;;;;;;;;;;;28.87;60.72;99702.25;4440354;32;20050;-90
2022/08/25 08:05:02;;;;;;;;;;;;;;;28.94;60.71;99691.69;4454247;32;19993;-89
2022/08/25 08:07:27;;;;;;;;;;;;;;;29.01;60.72;99698.03;4454265;32;20027;-89
2022/08/25 08:09:54;;;;;;;;;;;;;;;29.14;60.73;99694.84;4440225;32;20322;-89
2022/08/25 08:12:19;;;;;;;;;;;;;;;29.42;60.73;99697.97;4454127;32;19989;-89
2022/08/25 08:14:45;;;;;;;;;;;;;;;29.40;60.74;99691.94;4453973;32;20007;-89
2022/08/25 08:17:11;;;;;;;;;;;;;;;29.50;60.75;99696.13;4452996;32;19992;-89
2022/08/25 08:19:36;;;;;;;;;;;;;;;29.48;60.74;99703.50;4440212;32;19984;-89
2022/08/25 08:22:02;;;;;;;;;;;;;;;29.69;60.75;99699.44;4453444;32;30301;-88
2022/08/25 08:24:28;;;;;;;;;;;;;;;29.99;60.77;99701.31;4440111;32;20034;-89
2022/08/25 08:26:53;;;;;;;;;;;;;;;30.01;60.77;99698.44;4441688;32;20008;-89
2022/08/25 08:29:20;;;;;;;;;;;;;;;30.02;60.77;99697.44;4441495;32;29289;-89
2022/08/25 08:31:45;;;;;;;;;;;;;;;30.09;60.78;99693.94;4456259;32;19981;-89
2022/08/25 08:34:11;;;;;;;;;;;;;;;30.19;60.78;99693.69;4456104;32;19980;-89
2022/08/25 08:36:36;;;;;;;;;;;;;;;30.44;60.79;99697.06;4456200;32;19991;-89
2022/08/25 08:39:01;;;;;;;;;;;;;;;30.36;60.78;99695.28;4442081;32;20121;-89
2022/08/25 08:44:44;;;;;;;;;;;;;;;30.77;60.82;99690.50;4456232;32;19992;-88
2022/08/25 08:47:10;;;;;;;;;;;;;;;30.95;60.82;99686.63;4456105;32;20326;-86
2022/08/25 08:49:44;;;;;;;;;;;;;;;31.09;60.83;99686.66;4441855;32;20003;-86
2022/08/25 08:52:09;;;;;;;;;;;;;;;31.28;60.84;99682.66;4456076;32;20326;-86
2022/08/25 08:54:36;;;;;;;;;;;;;;;31.37;60.84;99683.41;4441917;32;20037;-86
2022/08/25 08:57:07;;;;;;;;;;;;;;;31.45;60.84;99681.44;4441860;32;20000;-86
2022/08/25 08:59:39;;;;;;;;;;;;;;;31.53;60.85;99677.00;4441721;32;19984;-86
2022/08/25 09:02:05;;;;;;;;;;;;;;;31.68;60.86;99680.50;4456207;32;19992;-85
2022/08/25 09:04:41;;;;;;;;;;;;;;;31.69;60.86;99680.31;4441712;32;19993;-85
2022/08/25 09:07:09;;;;;;;;;;;;;;;31.68;60.86;99680.50;4441835;32;20045;-85
2022/08/25 09:09:35;;;;;;;;;;;;;;;31.87;60.86;99679.13;4441911;32;19977;-85
2022/08/25 09:12:14;;;;;;;;;;;;;;;31.98;60.88;99684.06;4455937;32;19988;-85
2022/08/25 09:14:42;;;;;;;;;;;;;;;32.21;60.89;99675.81;4428903;32;20072;-85
2022/08/25 09:17:26;;;;;;;;;;;;;;;32.34;60.89;99671.44;4455872;32;20001;-86
2022/08/25 09:19:54;;;;;;;;;;;;;;;32.41;60.89;99668.78;4441900;32;19980;-85
2022/08/25 09:22:35;;;;;;;;;;;;;;;32.62;60.91;99662.56;4456176;32;19989;-85
2022/08/25 09:25:03;;;;;;;;;;;;;;;32.65;60.91;99660.34;4455944;32;20173;-85
2022/08/25 09:27:31;;;;;;;;;;;;;;;32.66;60.91;99656.63;4455940;32;20304;-85
2022/08/25 09:29:57;;;;;;;;;;;;;;;32.63;60.91;99654.28;4456101;32;19997;-85
2022/08/25 09:32:22;;;;;;;;;;;;;;;32.36;60.90;99653.22;4456155;32;19988;-86
2022/08/25 09:34:47;;;;;;;;;;;;;;;32.40;60.90;99658.22;4455123;32;25604;-85
2022/08/25 09:37:12;;;;;;;;;;;;;;;32.55;60.90;99640.97;4454929;32;20368;-85
2022/08/25 09:39:38;;;;;;;;;;;;;;;32.71;60.92;99649.81;4455310;32;19980;-85
2022/08/25 09:42:03;;;;;;;;;;;;;;;32.87;60.92;99641.47;4455638;32;20001;-85
2022/08/25 09:44:32;;;;;;;;;;;;;;;32.92;60.92;99634.47;4441649;32;20007;-84
2022/08/25 09:47:00;;;;;;;;;;;;;;;33.02;60.94;99635.97;4455808;32;20333;-84
2022/08/25 09:49:44;;;;;;;;;;;;;;;33.30;60.95;99623.28;4441838;32;19976;-85
2022/08/25 09:52:23;;;;;;;;;;;;;;;33.38;60.94;99619.66;4455639;32;19998;-85
2022/08/25 09:54:49;;;;;;;;;;;;;;;33.49;60.96;99617.19;4441443;32;20065;-84
2022/08/25 09:57:34;;;;;;;;;;;;;;;33.66;60.97;99614.16;4441261;32;19973;-84
2022/08/25 10:00:12;;;;;;;;;;;;;;;33.81;60.98;99614.84;4447275;32;19974;-85
2022/08/25 10:02:37;;;;;;;;;;;;;;;33.84;60.97;99609.91;4455862;32;19981;-85
2022/08/25 10:05:19;;;;;;;;;;;;;;;33.75;60.97;99610.25;4441646;32;20000;-84
2022/08/25 10:07:55;;;;;;;;;;;;;;;33.88;60.97;99609.50;4455866;32;19992;-85
2022/08/25 10:10:22;;;;;;;;;;;;;;;33.80;60.97;99600.50;4441488;32;19983;-84
2022/08/25 10:12:47;;;;;;;;;;;;;;;33.70;60.96;99601.94;4428621;32;20000;-84
2022/08/25 10:15:23;;;;;;;;;;;;;;;33.56;60.95;99607.25;4455462;32;19973;-84
2022/08/25 10:17:49;;;;;;;;;;;;;;;33.82;60.98;99603.81;4455570;32;19969;-84
2022/08/25 10:20:21;;;;;;;;;;;;;;;33.82;60.97;99595.72;4454099;32;20046;-84
2022/08/25 10:22:46;;;;;;;;;;;;;;;33.81;60.98;99598.63;4455442;32;19997;-84
2022/08/25 10:25:13;;;;;;;;;;;;;;;33.72;60.98;99595.28;4441405;32;20304;-84
2022/08/25 10:27:43;;;;;;;;;;;;;;;33.91;60.98;99591.03;4455390;32;20004;-84
2022/08/25 10:30:11;;;;;;;;;;;;;;;33.88;60.97;99588.72;4455484;32;20329;-84
2022/08/25 10:32:46;;;;;;;;;;;;;;;34.18;60.99;99590.03;4441146;32;19981;-84
2022/08/25 10:35:12;;;;;;;;;;;;;;;34.13;61.00;99578.19;4441163;32;20035;-84
2022/08/25 10:37:56;;;;;;;;;;;;;;;34.17;61.00;99580.28;4441242;32;20348;-84
2022/08/25 10:40:23;;;;;;;;;;;;;;;34.35;61.00;99586.97;4455232;32;19995;-84
2022/08/25 10:43:05;;;;;;;;;;;;;;;34.51;61.01;99574.91;4441298;32;19997;-84
2022/08/25 10:45:43;;;;;;;;;;;;;;;34.61;61.01;99575.34;4455321;32;20052;-84
2022/08/25 10:48:12;;;;;;;;;;;;;;;34.76;61.02;99562.41;4442361;32;20305;-84
2022/08/25 10:50:43;;;;;;;;;;;;;;;34.96;61.03;99565.13;4440989;32;19998;-85
2022/08/25 10:53:14;;;;;;;;;;;;;;;35.08;61.04;99568.84;4455185;32;19977;-85
2022/08/25 10:55:47;;;;;;;;;;;;;;;35.25;61.04;99561.06;4455311;32;19989;-84
2022/08/25 10:58:23;;;;;;;;;;;;;;;35.21;61.05;99567.97;4440434;32;19969;-85
2022/08/25 11:00:55;;;;;;;;;;;;;;;35.10;61.04;99561.34;4439965;32;19969;-85
2022/08/25 11:03:20;;;;;;;;;;;;;;;35.32;61.05;99554.62;4439933;32;19981;-85
2022/08/25 11:05:57;;;;;;;;;;;;;;;35.08;61.04;99558.03;4454145;32;19977;-85
2022/08/25 11:08:36;;;;;;;;;;;;;;;34.87;61.03;99542.88;4440136;32;20029;-85
2022/08/25 11:11:20;;;;;;;;;;;;;;;35.00;61.03;99545.53;4439787;32;19984;-85
2022/08/25 11:13:59;;;;;;;;;;;;;;;34.86;61.03;99552.03;4453803;32;20682;-84
2022/08/25 11:16:30;;;;;;;;;;;;;;;34.59;61.01;99545.81;4439779;32;20062;-84
2022/08/25 11:19:16;;;;;;;;;;;;;;;34.34;61.00;99551.03;4439796;32;19992;-85
2022/08/25 11:21:43;;;;;;;;;;;;;;;34.23;61.00;99538.09;4429356;32;20319;-85
2022/08/25 11:24:27;;;;;;;;;;;;;;;34.31;61.01;99545.16;4439835;32;19992;-85
2022/08/25 11:26:55;;;;;;;;;;;;;;;34.46;61.02;99535.00;4454108;32;20326;-85
2022/08/25 11:29:20;;;;;;;;;;;;;;;34.65;61.03;99533.31;4454014;32;20012;-85
2022/08/25 11:31:46;;;;;;;;;;;;;;;34.79;61.03;99524.16;4439761;32;20290;-85
2022/08/25 11:34:14;;;;;;;;;;;;;;;35.12;61.05;99526.78;4439649;32;20334;-85
2022/08/25 11:36:39;;;;;;;;;;;;;;;35.26;61.04;99519.47;4439930;32;19989;-85
2022/08/25 11:39:24;;;;;;;;;;;;;;;35.53;61.07;99510.22;4439628;32;20032;-85
2022/08/25 11:41:49;;;;;;;;;;;;;;;35.58;61.07;99509.56;4453784;32;20322;-85
2022/08/25 11:44:27;;;;;;;;;;;;;;;35.81;61.07;99506.28;4453574;32;20024;-84
2022/08/25 11:46:55;;;;;;;;;;;;;;;35.97;61.08;99503.94;4453565;32;20330;-85
2022/08/25 11:49:20;;;;;;;;;;;;;;;35.66;61.08;99493.88;4453476;32;19989;-86
2022/08/25 11:51:46;;;;;;;;;;;;;;;35.87;61.08;99491.91;4453527;32;19965;-86
2022/08/25 11:54:31;;;;;;;;;;;;;;;36.03;61.08;99495.97;4453371;32;20007;-86
2022/08/25 11:57:00;;;;;;;;;;;;;;;36.12;61.09;99490.03;4453730;32;19992;-86
2022/08/25 11:59:45;;;;;;;;;;;;;;;36.21;61.09;99486.00;4427925;32;836014;-86
2022/08/25 12:02:26;;;;;;;;;;;;;;;36.34;61.11;99487.78;4456448;32;19973;-85
2022/08/25 12:04:54;;;;;;;;;;;;;;;36.32;61.10;99478.22;4442229;32;20277;-85
2022/08/25 12:07:20;;;;;;;;;;;;;;;36.40;61.11;99470.62;4442734;32;19993;-85
2022/08/25 12:09:52;;;;;;;;;;;;;;;36.49;61.12;99477.44;4442565;32;20003;-85
2022/08/25 12:12:27;;;;;;;;;;;;;;;36.70;61.11;99468.06;4456651;32;19996;-85
2022/08/25 12:14:52;;;;;;;;;;;;;;;36.77;61.12;99474.22;4442510;32;19985;-85
2022/08/25 12:17:19;;;;;;;;;;;;;;;36.93;61.13;99470.13;4455683;32;35066;-85
2022/08/25 12:19:44;;;;;;;;;;;;;;;36.98;61.14;99462.13;4456534;32;20044;-85
2022/08/25 12:22:09;;;;;;;;;;;;;;;36.87;61.14;99466.41;4456326;32;20246;-85
2022/08/25 12:24:42;;;;;;;;;;;;;;;36.77;61.12;99471.50;4456254;32;20029;-85
2022/08/25 12:27:27;;;;;;;;;;;;;;;36.90;61.13;99467.81;4442441;32;20391;-85
2022/08/25 12:30:04;;;;;;;;;;;;;;;36.99;61.14;99471.91;4455712;32;20044;-85
2022/08/25 12:32:48;;;;;;;;;;;;;;;37.04;61.14;99472.06;4442204;32;20008;-86
2022/08/25 12:35:14;;;;;;;;;;;;;;;36.63;61.12;99471.88;4456458;32;20391;-85
2022/08/25 12:37:52;;;;;;;;;;;;;;;36.14;61.09;99460.00;4456320;32;19982;-85
2022/08/25 12:40:25;;;;;;;;;;;;;;;36.00;61.09;99466.59;4442110;32;20245;-86
2022/08/25 12:42:59;;;;;;;;;;;;;;;35.81;61.08;99465.66;4442768;32;19991;-85
2022/08/25 12:45:31;;;;;;;;;;;;;;;35.66;61.08;99458.66;4456375;32;20295;-85
2022/08/25 12:48:16;;;;;;;;;;;;;;;35.92;61.09;99459.56;4442096;32;20086;-86
2022/08/25 12:50:42;;;;;;;;;;;;;;;35.81;61.07;99466.50;4456266;32;19987;-86
2022/08/25 12:53:10;;;;;;;;;;;;;;;35.89;61.08;99458.13;4442271;32;20001;-85
2022/08/25 12:55:36;;;;;;;;;;;;;;;36.08;61.09;99452.75;4442197;32;20036;-85
2022/08/25 12:58:01;;;;;;;;;;;;;;;36.37;61.11;99452.09;4442234;32;20011;-86
2022/08/25 13:00:44;;;;;;;;;;;;;;;36.67;61.12;99449.50;4441413;32;26594;-86